createdAt,value
2023-05-16T00:01:50.066Z,6.03
2023-05-16T00:06:52.639Z,5.97
2023-05-16T00:11:55.160Z,5.78
2023-05-16T00:17:01.490Z,6.03
2023-05-16T00:22:04.640Z,5.10
2023-05-16T00:27:07.180Z,4.90
2023-05-16T00:32:09.870Z,5.15
2023-05-16T00:37:12.372Z,6.32
2023-05-16T00:42:14.726Z,6.25
2023-05-16T00:47:17.148Z,6.53
2023-05-16T00:52:19.512Z,4.90
2023-05-16T00:57:22.003Z,6.25
2023-05-16T01:02:28.737Z,5.68
2023-05-16T01:07:32.321Z,6.03
2023-05-16T01:12:49.580Z,6.18
2023-05-16T01:18:07.123Z,5.95
2023-05-16T01:23:40.412Z,7.63
2023-05-16T01:28:46.766Z,8.88
2023-05-16T01:33:49.769Z,6.75
2023-05-16T01:38:55.092Z,7.55
2023-05-16T01:44:05.477Z,6.20
2023-05-16T01:49:39.855Z,8.27
2023-05-16T01:54:48.639Z,4.97
2023-05-16T01:59:51.039Z,6.95
2023-05-16T02:04:53.391Z,5.82
2023-05-16T02:09:55.722Z,7.00
2023-05-16T02:14:58.138Z,8.07
2023-05-16T02:20:06.930Z,6.15
2023-05-16T02:25:10.188Z,10.10
2023-05-16T02:30:13.044Z,9.48
2023-05-16T02:35:15.801Z,9.10
2023-05-16T02:55:31.793Z,7.38
2023-05-16T03:00:34.314Z,9.75
2023-05-16T03:05:36.805Z,13.10
2023-05-16T03:10:39.189Z,9.10
2023-05-16T03:15:42.311Z,13.82
2023-05-16T03:20:45.089Z,10.07
2023-05-16T03:25:48.178Z,9.93
2023-05-16T03:30:50.520Z,20.60
2023-05-16T03:35:53.084Z,15.68
2023-05-16T03:40:55.872Z,24.02
2023-05-16T03:45:58.234Z,33.13
2023-05-16T03:51:00.551Z,13.00
2023-05-16T03:56:02.856Z,9.75
2023-05-16T04:01:05.166Z,9.43
2023-05-16T04:06:08.588Z,6.45
2023-05-16T04:11:11.225Z,5.63
2023-05-16T04:16:13.702Z,7.80
2023-05-16T04:21:16.190Z,5.43
2023-05-16T04:26:18.604Z,4.55
2023-05-16T04:31:22.299Z,6.25
2023-05-16T04:36:24.607Z,5.28
2023-05-16T04:41:27.040Z,4.07
2023-05-16T04:46:29.500Z,3.60
2023-05-16T04:51:34.155Z,4.13
2023-05-16T04:56:38.224Z,3.47
2023-05-16T05:01:41.062Z,3.83
2023-05-16T05:06:43.921Z,6.90
2023-05-16T05:11:46.722Z,7.88
2023-05-16T05:16:49.048Z,5.82
2023-05-16T05:21:51.429Z,8.50
2023-05-16T05:26:53.893Z,9.48
2023-05-16T05:31:56.383Z,7.32
2023-05-16T05:36:59.085Z,9.40
2023-05-16T05:42:03.860Z,7.72
2023-05-16T05:47:07.313Z,8.35
2023-05-16T05:52:09.771Z,7.18
2023-05-16T05:57:12.289Z,7.70
2023-05-16T06:02:14.970Z,6.97
2023-05-16T06:12:20.873Z,8.70
2023-05-16T06:17:23.397Z,5.03
2023-05-16T06:22:26.009Z,5.32
2023-05-16T06:27:28.492Z,6.07
2023-05-16T06:32:31.160Z,6.10
2023-05-16T06:42:35.888Z,3.63
2023-05-16T06:47:38.445Z,6.72
2023-05-16T06:52:41.030Z,7.05
2023-05-16T06:57:43.500Z,7.10
2023-05-16T07:02:48.870Z,5.13
2023-05-16T07:07:51.319Z,5.30
2023-05-16T07:12:53.912Z,6.20
2023-05-16T07:17:56.405Z,4.13
2023-05-16T07:22:59.760Z,6.13
2023-05-16T07:28:02.390Z,7.15
2023-05-16T07:33:05.275Z,3.38
2023-05-16T07:43:09.952Z,4.90
2023-05-16T07:48:12.442Z,8.27
2023-05-16T07:53:14.974Z,7.10
2023-05-16T07:58:17.467Z,5.75
2023-05-16T08:03:20.142Z,6.60
2023-05-16T08:13:25.008Z,3.72
2023-05-16T08:18:27.645Z,7.38
2023-05-16T08:23:30.170Z,4.47
2023-05-16T08:28:32.780Z,3.78
2023-05-16T08:38:37.501Z,8.18
2023-05-16T08:43:40.116Z,6.65
2023-05-16T08:48:44.181Z,8.75
2023-05-16T08:53:54.674Z,6.95
2023-05-16T08:58:58.383Z,8.98
2023-05-16T09:04:01.632Z,5.55
2023-05-16T09:09:08.024Z,8.98
2023-05-16T09:14:10.638Z,13.65
2023-05-16T09:19:14.545Z,5.50
2023-05-16T09:24:17.312Z,11.45
2023-05-16T09:29:20.404Z,7.13
2023-05-16T09:34:23.163Z,6.85
2023-05-16T09:39:27.838Z,4.85
2023-05-16T09:44:31.935Z,5.53
2023-05-16T09:49:37.675Z,6.97
2023-05-16T09:54:41.387Z,5.25
2023-05-16T09:59:46.083Z,8.68
2023-05-16T10:04:48.564Z,5.63
2023-05-16T10:09:53.162Z,4.05
2023-05-16T10:14:56.887Z,8.73
2023-05-16T10:20:05.980Z,4.95
2023-05-16T10:25:34.654Z,11.80
2023-05-16T10:30:40.885Z,7.00
2023-05-16T10:35:44.689Z,5.05
2023-05-16T10:40:48.294Z,7.00
2023-05-16T10:45:58.829Z,6.05
2023-05-16T10:51:03.539Z,8.88
2023-05-16T10:56:09.356Z,9.15
2023-05-16T11:01:22.711Z,9.77
2023-05-16T11:06:30.117Z,4.25
2023-05-16T11:11:55.752Z,8.57
2023-05-16T11:17:03.827Z,5.95
2023-05-16T11:22:19.589Z,3.63
2023-05-16T11:27:52.549Z,9.90
2023-05-16T11:32:56.192Z,3.42
2023-05-16T11:37:58.887Z,5.72
2023-05-16T11:43:07.104Z,3.00
2023-05-16T11:48:10.177Z,7.95
2023-05-16T11:53:14.817Z,3.58
2023-05-16T11:58:18.012Z,6.45
2023-05-16T12:03:21.478Z,4.22
2023-05-16T12:08:25.496Z,4.05
2023-05-16T12:13:28.481Z,8.65
2023-05-16T12:18:31.095Z,6.63
2023-05-16T12:23:34.512Z,7.85
2023-05-16T12:33:41.947Z,5.13
2023-05-16T12:38:47.709Z,6.20
2023-05-16T12:43:50.735Z,3.75
2023-05-16T12:49:05.432Z,9.13
2023-05-16T12:54:10.634Z,16.08
2023-05-16T12:59:16.297Z,12.82
2023-05-16T13:04:20.619Z,9.77
2023-05-16T13:09:24.034Z,5.88
2023-05-16T13:14:26.431Z,3.05
2023-05-16T13:19:29.099Z,4.35
2023-05-16T13:24:31.515Z,9.90
2023-05-16T13:29:33.909Z,7.97
2023-05-16T13:34:36.378Z,11.93
2023-05-16T13:39:38.881Z,6.35
2023-05-16T13:44:41.326Z,3.42
2023-05-16T13:49:44.081Z,12.52
2023-05-16T13:54:46.498Z,15.40
2023-05-16T14:00:17.715Z,11.68
2023-05-16T14:05:14.365Z,9.68
2023-05-16T14:10:16.831Z,5.55
2023-05-16T14:15:19.471Z,4.57
2023-05-16T14:20:22.052Z,5.47
2023-05-16T14:25:24.584Z,4.68
2023-05-16T14:30:27.611Z,5.03
2023-05-16T14:35:31.427Z,6.45
2023-05-16T14:40:34.587Z,4.38
2023-05-16T14:45:40.621Z,3.20
2023-05-16T14:50:43.393Z,3.00
2023-05-16T14:55:45.843Z,2.60
2023-05-16T15:00:48.500Z,4.18
2023-05-16T15:05:50.927Z,3.65
2023-05-16T15:10:53.375Z,1.90
2023-05-16T15:15:56.028Z,2.83
2023-05-16T15:20:58.506Z,2.55
2023-05-16T15:26:01.100Z,3.45
2023-05-16T15:31:05.876Z,6.15
2023-05-16T15:41:43.591Z,5.70
2023-05-16T15:46:47.259Z,4.72
2023-05-16T15:51:51.386Z,4.00
2023-05-16T15:56:53.959Z,3.50
2023-05-16T16:01:56.830Z,3.85
2023-05-16T16:06:59.433Z,5.07
2023-05-16T16:12:02.779Z,7.10
2023-05-16T16:17:05.295Z,6.85
2023-05-16T16:22:07.850Z,7.50
2023-05-16T16:27:10.336Z,9.65
2023-05-16T16:32:12.906Z,10.85
2023-05-16T16:37:15.413Z,10.60
2023-05-16T16:42:17.822Z,7.13
2023-05-16T16:47:20.345Z,7.43
2023-05-16T16:52:22.945Z,5.10
2023-05-16T16:57:25.612Z,6.63
2023-05-16T17:02:28.757Z,6.53
2023-05-16T17:07:31.789Z,6.70
2023-05-16T17:12:35.129Z,6.78
2023-05-16T17:17:37.598Z,6.32
2023-05-16T17:22:40.882Z,9.85
2023-05-16T17:27:44.929Z,7.35
2023-05-16T17:32:47.590Z,4.07
2023-05-16T17:37:50.975Z,6.60
2023-05-16T17:42:53.510Z,5.72
2023-05-16T17:47:56.122Z,9.85
2023-05-16T17:52:59.294Z,9.57
2023-05-16T17:58:01.818Z,9.00
2023-05-16T18:03:05.433Z,11.98
2023-05-16T18:08:08.727Z,8.35
2023-05-16T18:13:12.652Z,8.88
2023-05-16T18:18:15.234Z,7.20
2023-05-16T18:23:17.741Z,11.30
2023-05-16T18:28:21.095Z,9.80
2023-05-16T18:33:23.657Z,10.40
2023-05-16T18:38:32.612Z,10.10
2023-05-16T18:43:36.897Z,9.93
2023-05-16T18:48:39.406Z,14.90
2023-05-16T18:53:42.019Z,16.40
2023-05-16T18:58:44.584Z,13.95
2023-05-16T19:03:47.233Z,15.93
2023-05-16T19:08:50.064Z,16.13
2023-05-16T19:13:52.559Z,13.77
2023-05-16T19:18:55.225Z,9.82
2023-05-16T19:23:57.861Z,11.27
2023-05-16T19:29:00.686Z,9.00
2023-05-16T19:34:03.367Z,9.05
2023-05-16T19:39:06.087Z,10.10
2023-05-16T19:44:08.657Z,8.25
2023-05-16T19:49:11.160Z,9.57
2023-05-16T19:54:13.814Z,9.32
2023-05-16T19:59:17.209Z,10.05
2023-05-16T20:04:19.777Z,10.82
2023-05-16T20:09:22.485Z,11.00
2023-05-16T20:14:25.575Z,13.52
2023-05-16T20:19:30.211Z,14.60
2023-05-16T20:24:32.765Z,12.80
2023-05-16T20:29:35.412Z,13.05
2023-05-16T20:34:39.178Z,12.70
2023-05-16T20:39:43.371Z,11.55
2023-05-16T20:44:45.921Z,14.32
2023-05-16T20:49:48.366Z,10.45
2023-05-16T20:54:50.952Z,12.70
2023-05-16T20:59:53.497Z,11.95
2023-05-16T21:04:57.438Z,13.55
2023-05-16T21:10:01.822Z,10.93
2023-05-16T21:15:07.761Z,10.98
2023-05-16T21:20:10.509Z,11.05
2023-05-16T21:25:12.990Z,10.70
2023-05-16T21:30:15.660Z,11.48
2023-05-16T21:35:18.131Z,15.02
2023-05-16T21:40:25.157Z,10.82
2023-05-16T21:45:28.048Z,11.10
2023-05-16T21:50:31.234Z,11.68
2023-05-16T21:55:33.769Z,11.70
2023-05-16T22:00:36.730Z,14.43
2023-05-16T22:05:39.114Z,10.57
2023-05-16T22:10:41.501Z,11.15
2023-05-16T22:15:49.297Z,11.40
2023-05-16T22:20:58.446Z,10.15
2023-05-16T22:26:00.939Z,9.73
2023-05-16T22:31:03.495Z,10.75
2023-05-16T22:36:06.222Z,10.38
2023-05-16T22:41:08.759Z,10.00
2023-05-16T22:46:11.208Z,12.27
2023-05-16T22:51:13.831Z,20.20
2023-05-16T22:56:16.275Z,29.77
2023-05-16T23:01:18.635Z,26.63
2023-05-16T23:06:21.133Z,25.15
2023-05-16T23:11:23.488Z,20.15
2023-05-16T23:16:26.092Z,31.92
2023-05-16T23:21:28.604Z,27.02
2023-05-16T23:26:31.723Z,19.95
2023-05-16T23:31:34.206Z,16.15
2023-05-16T23:36:37.041Z,14.55
2023-05-16T23:41:39.736Z,12.73
2023-05-16T23:46:42.257Z,14.70
2023-05-16T23:51:56.757Z,15.20
2023-05-16T23:57:00.378Z,12.88
